Time;durP1;ratioP1;P1;durP2;ratioP2;P2;SDS_P1;SDS_P2;PMS_P1;PMS_P2;Temp;Humidity;BMP_temperature;BMP_pressure;BME280_temperature;BME280_humidity;BME280_pressure;Samples;Min_cycle;Max_cycle;Signal;HPM_P1;HPM_P2
2021/08/24 00:01:52;;;;;;;5.22;3.10;;;;;;;14.70;93.92;102246.56;4980841;28;20372;-84
2021/08/24 00:04:18;;;;;;;6.32;3.47;;;;;;;14.66;94.25;102248.72;4981645;28;20154;-83
2021/08/24 00:06:43;;;;;;;6.22;3.20;;;;;;;14.62;93.66;102254.63;4978680;28;20197;-83
2021/08/24 00:09:08;;;;;;;6.65;3.30;;;;;;;14.58;94.18;102251.34;4974585;28;20042;-83
2021/08/24 00:11:35;;;;;;;5.78;3.08;;;;;;;14.53;94.25;102259.09;4959284;28;20452;-83
2021/08/24 00:14:01;;;;;;;8.40;3.35;;;;;;;14.53;94.56;102252.81;4960460;28;20140;-83
2021/08/24 00:16:27;;;;;;;5.88;3.13;;;;;;;14.51;94.00;102260.22;4956800;28;20046;-83
2021/08/24 00:18:52;;;;;;;6.00;2.95;;;;;;;14.50;93.96;102259.38;4961948;28;20031;-83
2021/08/24 00:21:17;;;;;;;5.90;2.90;;;;;;;14.48;93.65;102261.38;4961440;28;20137;-83
2021/08/24 00:23:43;;;;;;;8.00;3.25;;;;;;;14.46;94.05;102252.56;4976155;28;20054;-83
2021/08/24 00:26:08;;;;;;;5.28;3.10;;;;;;;14.39;94.04;102263.16;4981397;28;20517;-84
2021/08/24 00:28:33;;;;;;;7.13;3.78;;;;;;;14.39;94.24;102257.75;4981720;28;20480;-83
2021/08/24 00:30:59;;;;;;;5.35;3.15;;;;;;;14.38;94.10;102252.47;4982732;28;20547;-84
2021/08/24 00:33:25;;;;;;;6.57;3.33;;;;;;;14.33;94.10;102252.13;4976471;28;20046;-84
2021/08/24 00:35:51;;;;;;;8.57;3.17;;;;;;;14.27;94.52;102250.88;4979178;28;20054;-84
2021/08/24 00:38:20;;;;;;;5.65;3.30;;;;;;;14.27;94.30;102253.56;4981058;28;20659;-84
2021/08/24 00:40:59;;;;;;;6.00;3.33;;;;;;;14.26;94.60;102256.41;4982010;28;20050;-84
2021/08/24 00:43:27;;;;;;;6.55;3.33;;;;;;;14.17;94.92;102253.63;4980846;28;20054;-84
2021/08/24 00:45:57;;;;;;;7.60;4.20;;;;;;;14.12;94.95;102255.91;4978929;28;20035;-84
2021/08/24 00:48:31;;;;;;;5.78;3.58;;;;;;;14.12;95.20;102257.78;4980738;28;20104;-84
2021/08/24 00:50:56;;;;;;;6.70;3.28;;;;;;;14.06;95.36;102261.94;4982840;28;20523;-84
2021/08/24 00:53:26;;;;;;;6.50;3.90;;;;;;;13.98;95.54;102264.53;4979478;28;20081;-84
2021/08/24 00:55:54;;;;;;;4.97;3.45;;;;;;;13.92;96.01;102260.59;4991668;28;20049;-83
2021/08/24 00:58:20;;;;;;;6.70;3.88;;;;;;;13.92;96.34;102262.44;4981578;28;20057;-84
2021/08/24 01:00:47;;;;;;;6.80;4.00;;;;;;;13.83;96.58;102258.78;4979054;28;20038;-84
2021/08/24 01:03:27;;;;;;;6.68;3.75;;;;;;;13.85;96.84;102266.75;4982020;28;20038;-84
2021/08/24 01:05:59;;;;;;;6.20;4.18;;;;;;;13.82;96.91;102264.34;4993924;28;20053;-84
2021/08/24 01:08:45;;;;;;;6.78;3.80;;;;;;;13.76;97.46;102269.34;4980673;28;20042;-84
2021/08/24 01:11:49;;;;;;;5.95;3.78;;;;;;;13.73;97.51;102261.56;4980997;28;20046;-84
2021/08/24 01:14:21;;;;;;;6.63;4.22;;;;;;;13.74;97.45;102262.41;4952285;28;20526;-83
2021/08/24 01:16:58;;;;;;;5.45;3.95;;;;;;;13.70;97.92;102267.25;4992156;28;20558;-83
2021/08/24 01:19:43;;;;;;;7.35;4.53;;;;;;;13.73;98.18;102264.25;4977735;28;20700;-83
2021/08/24 01:22:30;;;;;;;9.45;4.50;;;;;;;13.73;97.85;102260.72;4979796;28;20042;-83
2021/08/24 01:25:02;;;;;;;7.05;4.20;;;;;;;13.74;98.07;102254.31;4979986;28;20074;-83
2021/08/24 01:27:37;;;;;;;8.73;4.70;;;;;;;13.73;97.92;102256.16;4978108;28;22142;-83
2021/08/24 01:30:15;;;;;;;7.68;4.65;;;;;;;13.67;97.67;102254.06;4978876;28;20046;-83
2021/08/24 01:33:24;;;;;;;6.15;4.30;;;;;;;13.69;98.19;102260.13;4977906;28;20605;-83
2021/08/24 01:36:08;;;;;;;8.43;4.63;;;;;;;13.66;98.38;102257.75;4995327;28;20280;-83
2021/08/24 01:39:03;;;;;;;7.90;4.75;;;;;;;13.65;98.31;102258.75;4978896;28;20137;-83
2021/08/24 01:41:54;;;;;;;8.50;4.75;;;;;;;13.61;98.46;102262.75;4979946;28;20034;-83
2021/08/24 01:44:22;;;;;;;7.20;4.53;;;;;;;13.59;98.81;102267.44;4977644;28;20042;-83
2021/08/24 01:47:10;;;;;;;7.30;5.28;;;;;;;13.64;98.81;102262.44;5012388;28;20471;-84
2021/08/24 01:49:44;;;;;;;8.30;4.73;;;;;;;13.63;98.71;102270.69;4979050;28;20050;-84
2021/08/24 01:52:14;;;;;;;6.78;5.00;;;;;;;13.61;98.96;102262.75;4996262;28;20133;-84
2021/08/24 01:55:02;;;;;;;8.35;4.93;;;;;;;13.61;99.09;102262.75;4980222;28;20047;-83
2021/08/24 01:57:41;;;;;;;9.10;4.90;;;;;;;13.58;98.75;102257.66;4979558;28;20132;-83
2021/08/24 02:00:10;;;;;;;6.65;4.40;;;;;;;13.56;99.03;102259.66;4981386;28;20244;-83
2021/08/24 02:03:01;;;;;;;8.23;5.20;;;;;;;13.61;99.17;102253.78;4980142;28;20046;-84
2021/08/24 02:05:41;;;;;;;8.43;5.10;;;;;;;13.57;98.87;102255.94;4993329;28;20070;-84
2021/08/24 02:08:12;;;;;;;8.15;5.65;;;;;;;13.54;99.17;102256.22;4977327;28;20163;-83
2021/08/24 02:10:41;;;;;;;8.50;5.30;;;;;;;13.53;99.43;102266.19;4976687;28;20051;-84
2021/08/24 02:13:08;;;;;;;8.23;5.50;;;;;;;13.52;99.49;102263.63;4978311;28;20102;-83
2021/08/24 02:15:39;;;;;;;8.93;5.30;;;;;;;13.48;99.60;102262.22;4958113;28;20519;-83
2021/08/24 02:18:07;;;;;;;9.48;5.80;;;;;;;13.51;99.56;102267.31;4980041;28;20051;-84
2021/08/24 02:20:38;;;;;;;8.02;5.50;;;;;;;13.51;99.65;102273.56;4978716;28;20056;-84
2021/08/24 02:23:07;;;;;;;9.65;5.90;;;;;;;13.50;99.40;102271.03;4974804;28;20141;-83
2021/08/24 02:25:39;;;;;;;8.73;5.10;;;;;;;13.48;99.62;102279.25;4963057;28;20046;-83
2021/08/24 02:28:18;;;;;;;8.60;5.82;;;;;;;13.50;99.39;102271.88;4983983;28;20046;-84
2021/08/24 02:31:21;;;;;;;10.65;5.88;;;;;;;13.50;99.68;102266.47;4977260;28;20070;-84
2021/08/24 02:34:01;;;;;;;7.93;5.63;;;;;;;13.45;100.00;102263.38;4998893;28;20043;-84
2021/08/24 02:36:28;;;;;;;8.45;6.13;;;;;;;13.45;100.00;102267.91;4983964;28;20085;-83
2021/08/24 02:39:05;;;;;;;7.80;5.82;;;;;;;13.45;100.00;102267.91;4982534;28;20049;-83
2021/08/24 02:41:45;;;;;;;8.90;5.90;;;;;;;13.41;100.00;102269.22;4983741;28;20517;-84
2021/08/24 02:44:16;;;;;;;9.27;6.22;;;;;;;13.32;100.00;102268.22;4984923;28;20043;-83
2021/08/24 02:46:46;;;;;;;10.10;6.20;;;;;;;13.30;100.00;102273.78;4983344;28;20103;-83
2021/08/24 02:49:38;;;;;;;11.48;6.75;;;;;;;13.35;100.00;102272.47;4981313;28;20061;-83
2021/08/24 02:52:09;;;;;;;9.95;5.93;;;;;;;13.36;100.00;102274.19;4980116;28;20061;-84
2021/08/24 02:54:42;;;;;;;9.65;6.22;;;;;;;13.36;100.00;102274.19;4982652;28;20173;-83
2021/08/24 02:57:09;;;;;;;12.65;6.90;;;;;;;13.30;100.00;102271.09;4975322;28;20046;-84
2021/08/24 02:59:35;;;;;;;10.60;6.38;;;;;;;13.33;100.00;102280.72;4981703;28;20506;-84
2021/08/24 03:02:02;;;;;;;11.00;6.82;;;;;;;13.32;100.00;102279.88;4984094;28;20046;-83
2021/08/24 03:04:27;;;;;;;10.43;6.90;;;;;;;13.29;100.00;102277.47;4983095;28;20145;-83
2021/08/24 03:06:58;;;;;;;14.05;7.47;;;;;;;13.31;100.00;102285.41;4983408;28;20499;-83
2021/08/24 03:09:27;;;;;;;11.90;6.97;;;;;;;13.31;100.00;102278.16;4980056;28;20042;-83
2021/08/24 03:12:29;;;;;;;12.13;6.73;;;;;;;13.30;100.00;102276.47;4997370;28;20046;-83
2021/08/24 03:15:07;;;;;;;10.82;7.35;;;;;;;13.27;100.00;102279.47;4995113;28;20043;-84
2021/08/24 03:18:03;;;;;;;11.65;7.55;;;;;;;13.29;100.00;102282.88;4979148;28;20676;-84
2021/08/24 03:20:33;;;;;;;10.55;7.50;;;;;;;13.26;100.00;102279.59;4965736;28;20109;-83
2021/08/24 03:23:00;;;;;;;12.52;7.85;;;;;;;13.25;100.00;102278.75;4963913;28;20153;-83
2021/08/24 03:25:26;;;;;;;13.73;8.13;;;;;;;13.27;100.00;102278.63;4989691;28;20491;-83
2021/08/24 03:27:52;;;;;;;10.60;8.23;;;;;;;13.28;100.00;102278.47;4962398;28;20039;-83
2021/08/24 03:30:19;;;;;;;12.23;8.20;;;;;;;13.25;100.00;102276.06;4994446;28;20042;-83
2021/08/24 03:32:46;;;;;;;14.40;8.45;;;;;;;13.28;100.00;102277.59;4985902;28;20058;-83
2021/08/24 03:35:12;;;;;;;14.52;8.50;;;;;;;13.30;100.00;102281.03;4976615;28;20587;-83
2021/08/24 03:37:39;;;;;;;15.15;8.48;;;;;;;13.27;100.00;102278.63;4980931;28;20042;-83
2021/08/24 03:40:07;;;;;;;14.65;9.55;;;;;;;13.25;100.00;102281.44;4978584;28;20096;-83
2021/08/24 03:42:33;;;;;;;16.25;9.77;;;;;;;13.21;100.00;102282.72;4975769;28;20047;-83
2021/08/24 03:44:58;;;;;;;15.93;9.48;;;;;;;13.22;100.00;102280.88;4982411;28;20042;-84
2021/08/24 03:47:23;;;;;;;16.63;10.30;;;;;;;13.17;100.00;102286.69;4981948;28;20062;-83
2021/08/24 03:49:49;;;;;;;17.98;9.60;;;;;;;13.17;100.00;102280.44;4975292;28;20132;-83
2021/08/24 03:52:14;;;;;;;15.32;9.73;;;;;;;13.16;100.00;102287.69;4982671;28;20582;-83
2021/08/24 03:54:40;;;;;;;15.63;9.27;;;;;;;13.10;100.00;102285.56;4958996;28;20381;-83
2021/08/24 03:57:05;;;;;;;18.63;10.25;;;;;;;13.10;100.00;102285.56;4947754;28;20088;-83
2021/08/24 03:59:30;;;;;;;16.23;10.50;;;;;;;13.05;100.00;102286.00;4977426;28;20538;-84
2021/08/24 04:01:56;;;;;;;15.52;10.82;;;;;;;13.07;100.00;102297.47;4981235;28;20335;-82
2021/08/24 04:04:21;;;;;;;17.90;10.43;;;;;;;13.06;100.00;102294.91;4980884;28;20101;-82
2021/08/24 04:06:47;;;;;;;18.38;11.73;;;;;;;13.03;100.00;102290.69;4979208;28;20069;-83
2021/08/24 04:09:12;;;;;;;17.48;11.15;;;;;;;13.02;100.00;102293.50;4960947;28;20043;-83
2021/08/24 04:11:37;;;;;;;17.67;11.85;;;;;;;13.04;100.00;102299.63;4968849;28;20046;-83
2021/08/24 04:14:03;;;;;;;17.85;11.90;;;;;;;13.00;100.00;102299.03;4982982;28;20046;-83
2021/08/24 04:16:28;;;;;;;19.67;12.27;;;;;;;13.01;100.00;102302.59;4971850;28;20102;-84
2021/08/24 04:18:54;;;;;;;22.00;12.50;;;;;;;12.98;100.00;102300.19;4980727;28;20034;-83
2021/08/24 04:21:20;;;;;;;23.50;13.07;;;;;;;12.99;100.00;102297.34;4951824;28;20150;-83
2021/08/24 04:23:47;;;;;;;22.35;14.45;;;;;;;13.00;100.00;102306.28;4960187;28;20245;-82
2021/08/24 04:26:13;;;;;;;22.40;14.70;;;;;;;13.01;100.00;102313.38;4974404;28;20042;-84
2021/08/24 04:28:39;;;;;;;22.50;14.27;;;;;;;13.01;100.00;102305.31;4982580;28;20034;-83
2021/08/24 04:31:06;;;;;;;24.65;14.70;;;;;;;13.05;100.00;102312.09;4999416;28;20100;-83
2021/08/24 04:33:33;;;;;;;21.52;15.05;;;;;;;13.02;100.00;102315.91;4977175;28;20031;-83
2021/08/24 04:35:59;;;;;;;22.35;13.60;;;;;;;13.02;100.00;102309.69;4989596;28;20125;-83
2021/08/24 04:38:24;;;;;;;24.05;15.75;;;;;;;13.03;100.00;102306.00;4977898;28;20117;-83
2021/08/24 04:40:50;;;;;;;22.88;15.73;;;;;;;13.04;100.00;102310.41;4980901;28;20065;-86
2021/08/24 04:43:17;;;;;;;22.95;16.13;;;;;;;13.03;100.00;102314.06;4978567;28;20735;-83
2021/08/24 04:45:43;;;;;;;21.20;14.95;;;;;;;13.04;100.00;102311.25;4977170;28;20054;-83
2021/08/24 04:48:08;;;;;;;20.67;15.13;;;;;;;12.99;100.00;102318.06;4973131;28;20125;-83
2021/08/24 04:50:35;;;;;;;22.08;15.45;;;;;;;13.01;100.00;102321.47;4998518;28;20499;-83
2021/08/24 04:53:00;;;;;;;26.27;16.33;;;;;;;13.01;100.00;102326.88;4982344;28;20089;-84
2021/08/24 04:55:26;;;;;;;24.08;15.73;;;;;;;13.03;100.00;102320.34;4973544;28;20444;-83
2021/08/24 04:57:52;;;;;;;22.95;15.27;;;;;;;13.00;100.00;102333.22;4974516;28;20062;-83
2021/08/24 05:00:18;;;;;;;24.05;17.17;;;;;;;12.99;100.00;102324.28;4976191;28;20077;-83
2021/08/24 05:02:43;;;;;;;25.85;16.48;;;;;;;12.99;100.00;102329.69;4982482;28;20057;-84
2021/08/24 05:05:09;;;;;;;25.63;16.42;;;;;;;12.99;100.00;102332.38;4979942;28;20371;-84
2021/08/24 05:07:35;;;;;;;25.88;17.02;;;;;;;12.98;100.00;102333.38;4980325;28;20066;-83
2021/08/24 05:10:04;;;;;;;24.55;16.58;;;;;;;12.94;100.00;102331.09;5011274;28;20105;-83
2021/08/24 05:12:30;;;;;;;21.63;16.40;;;;;;;12.95;100.00;102335.50;4980195;28;20317;-85
2021/08/24 05:14:56;;;;;;;25.45;15.95;;;;;;;12.93;100.00;102326.72;4980858;28;20034;-82
2021/08/24 05:17:21;;;;;;;27.38;17.75;;;;;;;12.97;100.00;102334.34;4978697;28;20045;-83
2021/08/24 05:19:48;;;;;;;27.00;17.85;;;;;;;12.98;100.00;102336.06;4975571;28;20910;-82
2021/08/24 05:22:13;;;;;;;26.52;17.92;;;;;;;12.97;100.00;102336.19;4964230;28;20046;-82
2021/08/24 05:24:38;;;;;;;25.60;17.73;;;;;;;13.00;100.00;102338.63;4974750;28;20622;-82
2021/08/24 05:27:04;;;;;;;24.83;17.45;;;;;;;13.00;100.00;102331.38;4964455;28;20057;-82
2021/08/24 05:29:30;;;;;;;27.52;17.27;;;;;;;13.03;100.00;102330.25;4980723;28;20053;-82
2021/08/24 05:31:55;;;;;;;27.08;18.75;;;;;;;13.05;100.00;102339.88;4980992;28;20042;-83
2021/08/24 05:34:21;;;;;;;27.67;18.83;;;;;;;13.04;100.00;102331.97;4981078;28;20479;-82
2021/08/24 05:36:46;;;;;;;29.77;18.10;;;;;;;13.10;100.00;102337.63;4981618;28;20038;-82
2021/08/24 05:39:12;;;;;;;25.55;17.20;;;;;;;13.14;100.00;102335.47;4976202;28;20371;-82
2021/08/24 05:41:39;;;;;;;24.90;17.63;;;;;;;13.18;100.00;102336.91;4969897;28;20051;-82
2021/08/24 05:44:05;;;;;;;28.13;18.38;;;;;;;13.21;100.00;102344.72;4962267;28;20047;-82
2021/08/24 05:46:30;;;;;;;24.00;17.20;;;;;;;13.25;100.00;102343.44;4962288;28;20046;-82
2021/08/24 05:48:56;;;;;;;26.63;17.25;;;;;;;13.31;100.00;102336.63;4983336;28;20042;-82
2021/08/24 05:51:23;;;;;;;26.15;16.92;;;;;;;13.35;100.00;102347.97;4983999;28;20184;-82
2021/08/24 05:53:49;;;;;;;25.10;18.40;;;;;;;13.39;100.00;102339.47;4987581;28;20082;-83
2021/08/24 05:56:18;;;;;;;25.25;17.30;;;;;;;13.43;100.00;102346.25;4980832;28;20478;-83
2021/08/24 05:58:44;;;;;;;26.63;18.35;;;;;;;13.44;100.00;102342.56;4981593;28;20116;-82
2021/08/24 06:01:17;;;;;;;25.67;17.05;;;;;;;13.49;100.00;102345.69;4979448;28;20038;-83
2021/08/24 06:03:43;;;;;;;29.17;17.65;;;;;;;13.56;100.00;102347.81;4982084;28;20042;-82
2021/08/24 06:06:20;;;;;;;23.80;17.33;;;;;;;13.61;100.00;102349.06;4983711;28;20606;-83
2021/08/24 06:08:45;;;;;;;27.50;18.52;;;;;;;13.64;100.00;102343.38;4981611;28;20068;-83
2021/08/24 06:11:24;;;;;;;24.33;17.13;;;;;;;13.68;100.00;102346.63;4979989;28;20046;-82
2021/08/24 06:13:50;;;;;;;26.87;18.33;;;;;;;13.71;100.00;102339.06;4993682;28;20046;-82
2021/08/24 06:16:16;;;;;;;23.55;16.88;;;;;;;13.79;100.00;102345.59;4972165;28;20296;-82
2021/08/24 06:18:42;;;;;;;24.77;17.08;;;;;;;13.85;100.00;102350.41;4982143;28;20482;-82
2021/08/24 06:21:08;;;;;;;24.15;17.13;;;;;;;13.87;100.00;102356.50;4983173;28;20053;-82
2021/08/24 06:23:33;;;;;;;24.52;17.25;;;;;;;13.92;100.00;102354.19;4979005;28;20053;-82
2021/08/24 06:25:59;;;;;;;22.98;17.10;;;;;;;13.94;100.00;102358.44;4982880;28;20121;-82
2021/08/24 06:28:24;;;;;;;27.90;18.52;;;;;;;13.98;100.00;102349.06;4982920;28;20054;-82
2021/08/24 06:30:50;;;;;;;25.88;17.80;;;;;;;14.02;100.00;102357.72;4983491;28;20045;-83
2021/08/24 06:33:16;;;;;;;23.35;17.50;;;;;;;14.05;100.00;102367.38;4981394;28;20514;-82
2021/08/24 06:35:42;;;;;;;26.25;17.35;;;;;;;14.10;100.00;102360.53;4983090;28;20361;-82
2021/08/24 06:38:07;;;;;;;26.70;19.50;;;;;;;14.13;100.00;102360.22;4981945;28;20047;-82
2021/08/24 06:40:33;;;;;;;25.42;17.63;;;;;;;14.18;100.00;102362.47;4982777;28;20040;-82
2021/08/24 06:42:59;;;;;;;23.10;17.25;;;;;;;14.23;100.00;102355.59;4975466;28;20049;-82
2021/08/24 06:45:28;;;;;;;24.83;18.05;;;;;;;14.26;100.00;102362.56;4977673;28;20049;-83
2021/08/24 06:47:54;;;;;;;26.20;19.45;;;;;;;14.33;100.00;102360.97;4978103;28;20399;-82
2021/08/24 06:50:22;;;;;;;28.23;19.08;;;;;;;14.39;100.00;102364.91;4984815;28;20373;-82
2021/08/24 06:52:48;;;;;;;26.30;19.77;;;;;;;14.45;100.00;102369.72;4979195;28;20050;-82
2021/08/24 06:55:14;;;;;;;27.50;20.75;;;;;;;14.46;100.00;102360.59;4981081;28;20575;-83
2021/08/24 06:57:41;;;;;;;26.17;19.70;;;;;;;14.47;100.00;102364.16;4986364;28;20042;-83
2021/08/24 07:00:12;;;;;;;26.60;20.52;;;;;;;14.52;100.00;102360.03;4987539;28;20042;-82
2021/08/24 07:02:38;;;;;;;27.10;20.55;;;;;;;14.59;100.00;102360.28;4987239;28;20038;-82
2021/08/24 07:05:04;;;;;;;26.83;20.23;;;;;;;14.61;100.00;102372.59;4981057;28;20310;-83
2021/08/24 07:07:30;;;;;;;24.23;19.02;;;;;;;14.69;100.00;102369.16;4983152;28;20263;-83
2021/08/24 07:09:55;;;;;;;27.00;19.73;;;;;;;14.73;100.00;102367.00;4985994;28;20491;-83
2021/08/24 07:12:20;;;;;;;23.63;19.90;;;;;;;14.79;100.00;102371.81;4974294;28;20541;-82
2021/08/24 07:14:46;;;;;;;25.83;19.13;;;;;;;14.91;100.00;102377.81;4978519;28;20038;-83
2021/08/24 07:17:11;;;;;;;24.17;18.23;;;;;;;14.94;100.00;102372.97;4981305;28;20038;-83
2021/08/24 07:19:37;;;;;;;20.20;16.23;;;;;;;15.00;100.00;102369.63;4965735;28;20727;-83
2021/08/24 07:22:04;;;;;;;24.63;16.25;;;;;;;15.08;100.00;102367.00;4981001;28;20419;-83
2021/08/24 07:24:29;;;;;;;23.73;15.52;;;;;;;15.15;100.00;102374.50;4980783;28;20046;-82
2021/08/24 07:26:55;;;;;;;22.73;16.13;;;;;;;15.25;100.00;102384.22;4981087;28;20042;-83
2021/08/24 07:29:20;;;;;;;18.58;14.70;;;;;;;15.40;99.51;102386.38;4981217;28;20249;-83
2021/08/24 07:31:46;;;;;;;16.10;13.80;;;;;;;15.44;97.98;102383.16;4985122;28;20043;-83
2021/08/24 07:34:11;;;;;;;17.92;13.63;;;;;;;15.48;98.57;102392.69;4970212;28;20137;-83
2021/08/24 07:36:36;;;;;;;19.17;13.27;;;;;;;15.57;98.98;102391.72;4986980;28;20038;-84
2021/08/24 07:39:03;;;;;;;18.17;13.02;;;;;;;15.64;97.01;102389.22;4986142;28;20048;-84
2021/08/24 07:41:29;;;;;;;19.08;12.80;;;;;;;15.73;96.53;102392.88;4983464;28;20491;-84
2021/08/24 07:43:54;;;;;;;14.48;11.45;;;;;;;15.79;96.52;102392.22;4985915;28;20294;-83
2021/08/24 07:46:20;;;;;;;16.33;12.02;;;;;;;15.83;95.87;102392.78;4982152;28;20046;-82
2021/08/24 07:48:45;;;;;;;15.55;11.43;;;;;;;15.94;96.28;102395.19;4983411;28;20074;-83
2021/08/24 07:51:11;;;;;;;17.27;11.68;;;;;;;16.05;95.91;102396.78;4982736;28;20108;-83
2021/08/24 07:53:37;;;;;;;15.85;11.30;;;;;;;16.13;94.89;102399.53;4979023;28;20400;-83
2021/08/24 07:56:04;;;;;;;13.75;10.60;;;;;;;16.18;93.28;102398.03;4980633;28;20466;-83
2021/08/24 07:58:30;;;;;;;13.82;10.93;;;;;;;16.25;92.45;102387.38;4997764;28;20045;-83
2021/08/24 08:00:56;;;;;;;14.90;11.10;;;;;;;16.27;92.15;102396.22;4981280;28;20399;-83
2021/08/24 08:03:21;;;;;;;14.73;10.65;;;;;;;16.33;92.67;102397.41;4981564;28;20062;-83
2021/08/24 08:05:47;;;;;;;14.23;10.55;;;;;;;16.41;91.63;102392.88;4978632;28;20180;-83
2021/08/24 08:08:13;;;;;;;14.18;9.82;;;;;;;16.46;91.31;102389.69;4975586;28;20566;-83
2021/08/24 08:10:38;;;;;;;16.27;9.73;;;;;;;16.56;90.17;102381.41;4998497;28;20045;-83
2021/08/24 08:13:04;;;;;;;15.60;9.85;;;;;;;16.68;90.21;102390.91;4999115;28;20297;-83
2021/08/24 08:15:32;;;;;;;12.13;10.05;;;;;;;16.78;90.29;102393.53;4976551;28;20054;-83
2021/08/24 08:18:00;;;;;;;15.18;9.82;;;;;;;16.79;89.36;102390.63;4995403;28;20249;-84
2021/08/24 08:20:25;;;;;;;12.63;9.52;;;;;;;16.87;90.18;102393.38;4980973;28;20689;-84
2021/08/24 08:22:51;;;;;;;16.65;9.55;;;;;;;17.00;89.32;102389.31;4981122;28;20411;-83
2021/08/24 08:25:16;;;;;;;14.43;9.20;;;;;;;17.13;88.76;102395.09;4983906;28;20042;-83
2021/08/24 08:27:42;;;;;;;13.98;8.32;;;;;;;17.17;87.62;102393.72;4981717;28;20101;-83
2021/08/24 08:30:09;;;;;;;10.55;7.40;;;;;;;17.31;87.81;102390.34;4979674;28;20625;-83
2021/08/24 08:32:38;;;;;;;14.45;8.00;;;;;;;17.35;85.59;102394.44;4981748;28;20518;-83
2021/08/24 08:35:04;;;;;;;9.60;6.97;;;;;;;17.45;86.84;102390.69;4977876;28;20058;-83
2021/08/24 08:37:32;;;;;;;9.82;6.03;;;;;;;17.63;84.98;102394.03;4981564;28;20046;-83
2021/08/24 08:39:58;;;;;;;9.30;5.53;;;;;;;17.73;82.92;102396.59;4986897;28;20034;-83
2021/08/24 08:42:31;;;;;;;11.88;5.10;;;;;;;17.78;81.33;102395.09;4984338;28;20042;-83
2021/08/24 08:45:12;;;;;;;8.35;4.68;;;;;;;17.91;81.10;102393.69;4992147;28;20054;-83
2021/08/24 08:47:59;;;;;;;8.68;4.47;;;;;;;17.98;80.25;102398.25;4993594;28;20134;-83
2021/08/24 08:50:39;;;;;;;7.18;3.92;;;;;;;18.08;78.95;102395.34;4983569;28;20035;-83
2021/08/24 08:53:16;;;;;;;6.07;3.55;;;;;;;18.20;77.57;102396.63;4988892;28;20494;-83
2021/08/24 08:55:50;;;;;;;6.55;3.38;;;;;;;18.37;75.27;102404.72;4993763;28;20053;-84
2021/08/24 08:58:40;;;;;;;7.45;4.03;;;;;;;18.38;76.78;102398.25;4979798;28;20049;-83
2021/08/24 09:01:14;;;;;;;5.47;3.15;;;;;;;18.49;74.40;102400.59;4976188;28;20785;-83
2021/08/24 09:03:43;;;;;;;5.03;3.08;;;;;;;18.54;74.47;102403.63;4981702;28;20043;-83
2021/08/24 09:06:10;;;;;;;7.63;3.47;;;;;;;18.58;73.82;102404.94;4981698;28;20105;-83
2021/08/24 09:08:38;;;;;;;4.43;2.65;;;;;;;18.61;71.36;102401.88;4980754;28;20034;-84
2021/08/24 09:11:05;;;;;;;4.65;2.70;;;;;;;18.72;71.29;102401.47;4984450;28;20050;-84
2021/08/24 09:13:37;;;;;;;5.72;2.95;;;;;;;18.83;71.40;102399.41;4983412;28;20117;-83
2021/08/24 09:16:36;;;;;;;5.97;2.88;;;;;;;18.92;72.63;102401.03;4984040;28;20038;-83
2021/08/24 09:19:10;;;;;;;7.18;2.80;;;;;;;19.06;71.08;102400.25;4960047;28;20074;-83
2021/08/24 09:21:39;;;;;;;6.20;2.30;;;;;;;19.23;71.14;102409.16;4994829;28;20043;-83
2021/08/24 09:24:29;;;;;;;4.95;2.38;;;;;;;19.31;70.43;102413.69;4979514;28;20125;-83
2021/08/24 09:27:11;;;;;;;4.85;2.67;;;;;;;19.34;69.13;102397.00;5009425;28;20651;-83
2021/08/24 09:29:46;;;;;;;5.00;2.38;;;;;;;19.37;69.11;102415.69;4979425;28;20120;-84
2021/08/24 09:32:19;;;;;;;6.38;2.47;;;;;;;19.36;69.21;102419.41;4985678;28;20042;-82
2021/08/24 09:34:46;;;;;;;4.28;2.60;;;;;;;19.33;70.18;102404.31;4982567;28;20567;-83
2021/08/24 09:37:21;;;;;;;5.28;2.45;;;;;;;19.41;69.46;102397.94;4989978;28;20069;-84
2021/08/24 09:39:54;;;;;;;3.75;2.08;;;;;;;19.56;69.31;102404.28;4991652;28;20226;-84
2021/08/24 09:42:33;;;;;;;6.72;2.33;;;;;;;19.63;68.67;102398.94;4986306;28;20042;-84
2021/08/24 09:45:25;;;;;;;4.95;3.03;;;;;;;19.58;66.08;102402.19;5003380;28;20058;-83
2021/08/24 09:47:59;;;;;;;4.30;2.72;;;;;;;19.56;68.36;102403.41;4983127;28;20045;-84
2021/08/24 09:50:31;;;;;;;4.95;2.50;;;;;;;19.70;69.39;102396.34;4988777;28;20439;-84
2021/08/24 09:52:57;;;;;;;5.28;2.75;;;;;;;19.80;68.36;102392.31;4986139;28;20066;-83
2021/08/24 09:55:28;;;;;;;5.68;3.10;;;;;;;19.83;68.16;102397.38;5003666;28;20069;-84
2021/08/24 09:58:04;;;;;;;5.03;2.60;;;;;;;19.92;67.78;102386.41;4989073;28;20081;-85
2021/08/24 10:00:52;;;;;;;5.35;2.47;;;;;;;20.04;67.11;102387.63;4984394;28;20042;-83
2021/08/24 10:03:36;;;;;;;4.35;2.50;;;;;;;20.22;67.85;102388.06;4988593;28;20686;-84
2021/08/24 10:06:21;;;;;;;5.50;2.05;;;;;;;20.28;63.79;102381.00;4993266;28;20064;-84
2021/08/24 10:08:47;;;;;;;6.28;2.08;;;;;;;20.34;65.35;102374.81;4988666;28;20042;-85
2021/08/24 10:11:21;;;;;;;5.13;2.95;;;;;;;20.41;62.98;102383.06;4991900;28;20331;-85
2021/08/24 10:13:47;;;;;;;6.10;2.60;;;;;;;20.47;64.75;102377.69;4985728;28;20096;-84
2021/08/24 10:16:27;;;;;;;5.60;2.50;;;;;;;20.49;63.55;102370.16;4995792;28;20552;-83
2021/08/24 10:19:06;;;;;;;4.63;2.47;;;;;;;20.45;63.07;102377.03;4985761;28;20062;-83
2021/08/24 10:21:51;;;;;;;4.45;2.22;;;;;;;20.50;62.71;102379.19;4987685;28;20096;-84
2021/08/24 10:24:24;;;;;;;3.97;1.88;;;;;;;20.51;62.32;102369.97;4988200;28;20088;-85
2021/08/24 10:26:55;;;;;;;4.20;2.45;;;;;;;20.59;60.47;102378.06;4990285;28;20093;-83
2021/08/24 10:29:26;;;;;;;4.60;2.30;;;;;;;20.67;59.49;102377.13;5002356;28;20045;-84
2021/08/24 10:31:57;;;;;;;5.90;2.40;;;;;;;20.69;61.06;102378.63;4989509;28;20046;-84
2021/08/24 10:34:32;;;;;;;5.20;2.40;;;;;;;20.78;61.37;102371.16;5002620;28;20038;-84
2021/08/24 10:37:26;;;;;;;4.07;2.05;;;;;;;20.80;59.41;102380.00;4975151;28;20081;-84
2021/08/24 10:40:15;;;;;;;3.97;2.00;;;;;;;20.87;61.45;102364.53;4983826;28;20042;-84
2021/08/24 10:42:59;;;;;;;4.97;2.53;;;;;;;20.88;60.63;102371.66;4980589;28;20031;-84
2021/08/24 10:45:37;;;;;;;4.70;2.33;;;;;;;20.93;61.25;102376.53;4974974;28;20088;-84
2021/08/24 10:48:07;;;;;;;5.18;2.40;;;;;;;20.98;60.33;102371.34;5000363;28;20046;-84
2021/08/24 10:51:00;;;;;;;5.43;2.15;;;;;;;20.88;59.08;102379.00;4988011;28;20111;-84
2021/08/24 10:53:47;;;;;;;4.38;1.88;;;;;;;20.88;58.60;102371.66;5000086;28;20038;-84
2021/08/24 10:56:36;;;;;;;5.43;2.65;;;;;;;20.77;59.04;102369.44;5003865;28;20042;-84
2021/08/24 10:59:11;;;;;;;4.82;2.20;;;;;;;20.79;60.00;102367.38;4996061;28;20065;-83
2021/08/24 11:01:52;;;;;;;4.20;2.30;;;;;;;20.89;59.31;102354.28;4983613;28;20121;-83
2021/08/24 11:04:35;;;;;;;4.20;2.20;;;;;;;21.03;58.72;102360.72;4980190;28;20049;-84
2021/08/24 11:07:38;;;;;;;5.80;2.20;;;;;;;21.13;57.23;102355.75;5013205;28;20658;-84
2021/08/24 11:10:25;;;;;;;3.47;1.80;;;;;;;21.15;57.63;102352.81;4997813;28;20051;-84
2021/08/24 11:13:12;;;;;;;3.60;2.00;;;;;;;21.28;57.77;102352.09;4965135;28;20428;-84
2021/08/24 11:15:53;;;;;;;4.88;2.10;;;;;;;21.46;58.00;102360.66;4962341;28;20093;-85
2021/08/24 11:18:35;;;;;;;4.18;2.22;;;;;;;21.41;56.42;102357.69;4971203;28;20046;-84
2021/08/24 11:21:19;;;;;;;3.90;2.05;;;;;;;21.41;55.94;102349.50;4997625;28;20121;-85
2021/08/24 11:23:54;;;;;;;4.18;1.77;;;;;;;21.41;56.61;102341.31;4982069;28;20053;-84
2021/08/24 11:26:33;;;;;;;4.15;2.10;;;;;;;21.60;57.35;102340.56;4983526;28;20038;-84
2021/08/24 11:29:17;;;;;;;;;;;;;;;21.71;56.50;102333.72;4979412;28;20503;-85
2021/08/24 11:32:00;;;;;;;4.78;2.17;;;;;;;21.63;55.58;102331.97;4993797;28;19926;-85
2021/08/24 11:34:48;;;;;;;4.03;2.00;;;;;;;21.67;57.09;102326.97;4981470;28;20057;-84